Main page
METAR-TAF:

METAR-TAF

Airports :

Cervia Air Base

Cervia, Italy

latitude: 44-13N, longitude: 012-18E, elevation: 6 m

Current weather observation

The report was made 36 minutes ago, at 18:55 UTC
Wind 4 kt from the Southeast
Temperature 19°C
Humidity 88%
Pressure 1014 hPa
Visibility 10 km or more
Scattered clouds at a height of 5000 ft

METAR: LIPC 221855Z 14004KT 9999 SCT050 19/17 Q1014 RMK BKN SCT090 VIS MIN 9999 WIND THR11 14004KT WIND THR29 /////KT BLU

Time: 21:31 (19:31 UTC)

Forecast

The report was made 2 hours and 31 minutes ago, at 17:00 UTC
Forecast valid from 22 at 18 UTC to 23 at 03 UTC
Wind 6 kt from the Southwest
Visibility 10 km or more
Scattered clouds at a height of 2000 ft
Scattered clouds at a height of 5000 ft
Temporary
from 22 at 18 UTC to 22 at 23 UTC
Visibility: 3000 m
Few clouds at a height of 1000 ft, Cumulonimbus.
Broken clouds at a height of 3000 ft
thunderstorm, rain

TAF: LIPC 221700Z 2218/2303 22006KT 9999 SCT020 SCT050 TEMPO 2218/2223 3000 TSRA FEW010CB BKN030

Weather observations and forecasts of more than 4000 airports (METAR and TAF reports).

The available stations are represented by yellow and red dots on the map.

Hover mouse over dot to see the name of the station.

Then click to see weather observations and forecasts.

To change the map : click on the green buttons with a black cross to zoom in, on the green button with a dash to zoom out, or on the green arrows for adjacent maps.


METAR-TAF: